Time;durP1;ratioP1;P1;durP2;ratioP2;P2;SDS_P1;SDS_P2;PMS_P1;PMS_P2;Temp;Humidity;BMP_temperature;BMP_pressure;BME280_temperature;BME280_humidity;BME280_pressure;Samples;Min_cycle;Max_cycle;Signal;HPM_P1;HPM_P2
2022/07/06 00:01:44;;;;;;;1.92;0.88;;;;;;;;;;5029680;28;20113;-65
2022/07/06 00:04:11;;;;;;;3.38;1.00;;;;;;;;;;5015946;28;20057;-68
2022/07/06 00:06:37;;;;;;;1.98;0.85;;;;;;;;;;5034667;28;20096;-68
2022/07/06 00:09:03;;;;;;;1.58;1.00;;;;;;;;;;5033736;28;20029;-68
2022/07/06 00:11:29;;;;;;;1.20;0.98;;;;;;;;;;5034687;28;20034;-69
2022/07/06 00:13:56;;;;;;;1.95;1.38;;;;;;;;;;5033319;28;20095;-67
2022/07/06 00:16:22;;;;;;;1.70;1.15;;;;;;;;;;5030710;28;20032;-66
2022/07/06 00:18:48;;;;;;;1.77;1.30;;;;;;;;;;5034179;28;20029;-67
2022/07/06 00:21:14;;;;;;;2.08;1.17;;;;;;;;;;5033276;28;20037;-61
2022/07/06 00:23:40;;;;;;;2.20;1.05;;;;;;;;;;5034412;28;20048;-66
2022/07/06 00:26:06;;;;;;;2.67;1.23;;;;;;;;;;5033782;28;20033;-65
2022/07/06 00:28:32;;;;;;;1.77;1.25;;;;;;;;;;5034200;28;20021;-66
2022/07/06 00:30:58;;;;;;;1.35;1.00;;;;;;;;;;5031705;28;20482;-54
2022/07/06 00:33:25;;;;;;;2.22;1.17;;;;;;;;;;5030966;28;20475;-67
2022/07/06 00:35:51;;;;;;;1.42;0.80;;;;;;;;;;5034242;28;20053;-66
2022/07/06 00:38:17;;;;;;;4.88;0.90;;;;;;;;;;5033376;28;20081;-66
2022/07/06 00:40:43;;;;;;;4.30;1.88;;;;;;;;;;5034041;28;20025;-66
2022/07/06 00:43:09;;;;;;;2.08;1.00;;;;;;;;;;5032793;28;20025;-66
2022/07/06 00:45:35;;;;;;;2.47;1.25;;;;;;;;;;5033890;28;20413;-64
2022/07/06 00:48:01;;;;;;;3.03;1.20;;;;;;;;;;5033085;28;20112;-54
2022/07/06 00:50:28;;;;;;;2.50;1.00;;;;;;;;;;5030848;28;20108;-66
2022/07/06 00:52:55;;;;;;;2.53;0.95;;;;;;;;;;5033270;28;20069;-66
2022/07/06 00:55:25;;;;;;;1.92;1.35;;;;;;;;;;5033405;28;20634;-67
2022/07/06 00:57:51;;;;;;;2.47;1.10;;;;;;;;;;5034276;28;20022;-66
2022/07/06 01:00:19;;;;;;;3.58;1.52;;;;;;;;;;5031088;28;20029;-66
2022/07/06 01:02:45;;;;;;;1.55;1.05;;;;;;;;;;5032922;28;20064;-65
2022/07/06 01:05:13;;;;;;;1.63;1.00;;;;;;;;;;5032340;28;20029;-65
2022/07/06 01:07:39;;;;;;;1.83;0.90;;;;;;;;;;5033374;28;20033;-68
2022/07/06 01:10:08;;;;;;;2.92;1.10;;;;;;;;;;5032625;28;20044;-67
2022/07/06 01:12:36;;;;;;;2.30;1.10;;;;;;;;;;5032936;28;20478;-67
2022/07/06 01:15:02;;;;;;;2.75;1.10;;;;;;;;;;5033029;28;20029;-54
2022/07/06 01:17:28;;;;;;;1.73;1.08;;;;;;;;;;5033316;28;20084;-67
2022/07/06 01:19:54;;;;;;;1.48;1.20;;;;;;;;;;5033197;28;20052;-67
2022/07/06 01:22:20;;;;;;;1.17;0.85;;;;;;;;;;5031578;28;20361;-67
2022/07/06 01:24:46;;;;;;;1.60;1.20;;;;;;;;;;5033342;28;20029;-68
2022/07/06 01:27:12;;;;;;;3.72;1.58;;;;;;;;;;5032229;28;20111;-65
2022/07/06 01:29:38;;;;;;;3.30;1.50;;;;;;;;;;5031129;28;20096;-68
2022/07/06 01:32:04;;;;;;;1.83;1.40;;;;;;;;;;5031351;28;20028;-56
2022/07/06 01:34:30;;;;;;;2.72;1.75;;;;;;;;;;5032129;28;20422;-69
2022/07/06 01:36:56;;;;;;;1.63;1.20;;;;;;;;;;5033095;28;20029;-69
2022/07/06 01:39:22;;;;;;;2.40;1.13;;;;;;;;;;5032764;28;20666;-69
2022/07/06 01:41:48;;;;;;;3.03;1.42;;;;;;;;;;5032641;28;20069;-67
2022/07/06 01:44:14;;;;;;;4.75;1.30;;;;;;;;;;5032036;28;20056;-67
2022/07/06 01:46:40;;;;;;;1.55;1.38;;;;;;;;;;5031562;28;20360;-66
2022/07/06 01:49:06;;;;;;;2.60;1.30;;;;;;;;;;5031876;28;20028;-58
2022/07/06 01:51:33;;;;;;;1.65;0.98;;;;;;;;;;5032587;28;20091;-67
2022/07/06 01:53:59;;;;;;;2.80;1.92;;;;;;;;;;5031792;28;20025;-69
2022/07/06 01:56:25;;;;;;;4.75;1.10;;;;;;;;;;5035425;28;20189;-69
2022/07/06 01:58:51;;;;;;;3.33;1.13;;;;;;;;;;5032814;28;20454;-69
2022/07/06 02:01:18;;;;;;;7.10;1.30;;;;;;;;;;5030094;28;20055;-68
2022/07/06 02:03:44;;;;;;;1.67;1.20;;;;;;;;;;5032580;28;20368;-68
2022/07/06 02:06:11;;;;;;;3.90;1.10;;;;;;;;;;5032029;28;20108;-69
2022/07/06 02:08:38;;;;;;;1.38;1.27;;;;;;;;;;5032489;28;20037;-69
2022/07/06 02:11:04;;;;;;;1.48;0.95;;;;;;;;;;5031342;28;20105;-54
2022/07/06 02:13:30;;;;;;;1.30;0.90;;;;;;;;;;5031346;28;20021;-67
2022/07/06 02:15:56;;;;;;;2.35;0.90;;;;;;;;;;5032255;28;20387;-68
2022/07/06 02:18:22;;;;;;;10.40;1.50;;;;;;;;;;5031872;28;20025;-69
2022/07/06 02:20:48;;;;;;;2.60;1.20;;;;;;;;;;5031943;28;20034;-68
2022/07/06 02:23:14;;;;;;;3.60;1.40;;;;;;;;;;5031396;28;20449;-68
2022/07/06 02:25:40;;;;;;;2.83;1.10;;;;;;;;;;5014132;28;20064;-68
2022/07/06 02:28:06;;;;;;;1.42;0.95;;;;;;;;;;5030232;28;20017;-55
2022/07/06 02:30:32;;;;;;;1.92;1.00;;;;;;;;;;5029576;28;20433;-67
2022/07/06 02:32:58;;;;;;;2.50;1.17;;;;;;;;;;5032124;28;20026;-67
2022/07/06 02:35:24;;;;;;;2.47;1.10;;;;;;;;;;5029566;28;20022;-68
2022/07/06 02:37:50;;;;;;;1.98;0.98;;;;;;;;;;5032464;28;20083;-65
2022/07/06 02:40:16;;;;;;;2.75;1.00;;;;;;;;;;5031091;28;20108;-63
2022/07/06 02:42:43;;;;;;;1.50;1.00;;;;;;;;;;5032207;28;20049;-66
2022/07/06 02:45:10;;;;;;;3.08;1.15;;;;;;;;;;5030909;28;20029;-61
2022/07/06 02:47:37;;;;;;;2.85;1.10;;;;;;;;;;5031150;28;20033;-66
2022/07/06 02:50:03;;;;;;;1.95;1.20;;;;;;;;;;5031988;28;20129;-66
2022/07/06 02:52:29;;;;;;;1.70;1.08;;;;;;;;;;5030856;28;20044;-65
2022/07/06 02:54:55;;;;;;;4.32;1.45;;;;;;;;;;5031912;28;20104;-65
2022/07/06 02:57:21;;;;;;;3.13;1.00;;;;;;;;;;5030372;28;20104;-66
2022/07/06 02:59:49;;;;;;;1.33;1.08;;;;;;;;;;5031549;28;20454;-66
2022/07/06 03:02:16;;;;;;;1.70;1.10;;;;;;;;;;5031090;28;20029;-66
2022/07/06 03:04:42;;;;;;;2.65;1.00;;;;;;;;;;5031309;28;20049;-64
2022/07/06 03:07:08;;;;;;;2.13;1.40;;;;;;;;;;5031095;28;20386;-54
2022/07/06 03:09:34;;;;;;;2.47;0.82;;;;;;;;;;5031428;28;20025;-66
2022/07/06 03:12:00;;;;;;;1.95;0.95;;;;;;;;;;5031621;28;20026;-66
2022/07/06 03:14:26;;;;;;;2.47;1.17;;;;;;;;;;5030777;28;20060;-66
2022/07/06 03:16:53;;;;;;;6.57;1.30;;;;;;;;;;5031744;28;20041;-66
2022/07/06 03:19:19;;;;;;;3.58;1.17;;;;;;;;;;5029430;28;20017;-65
2022/07/06 03:21:45;;;;;;;2.90;1.63;;;;;;;;;;5031017;28;20025;-66
2022/07/06 03:24:11;;;;;;;1.70;1.60;;;;;;;;;;5030466;28;20034;-55
2022/07/06 03:26:37;;;;;;;2.55;1.70;;;;;;;;;;5029781;28;20030;-65
2022/07/06 03:29:03;;;;;;;1.98;1.23;;;;;;;;;;5031610;28;20029;-68
2022/07/06 03:31:29;;;;;;;4.10;1.38;;;;;;;;;;5030157;28;20064;-68
2022/07/06 03:33:55;;;;;;;1.65;0.93;;;;;;;;;;5031531;28;20022;-67
2022/07/06 03:36:21;;;;;;;5.13;1.70;;;;;;;;;;5030985;28;20029;-66
2022/07/06 03:38:47;;;;;;;1.92;1.45;;;;;;;;;;5035172;28;20050;-66
2022/07/06 03:41:13;;;;;;;3.83;1.33;;;;;;;;;;5034176;28;20034;-64
2022/07/06 03:43:39;;;;;;;2.25;1.10;;;;;;;;;;5034045;28;20033;-67
2022/07/06 03:46:05;;;;;;;2.00;1.00;;;;;;;;;;5034604;28;20501;-66
2022/07/06 03:48:31;;;;;;;2.25;1.25;;;;;;;;;;5026234;28;20030;-64
2022/07/06 03:50:57;;;;;;;4.43;1.42;;;;;;;;;;5035286;28;20026;-65
2022/07/06 03:53:23;;;;;;;2.60;1.00;;;;;;;;;;5033914;28;20021;-65
2022/07/06 03:58:34;;;;;;;5.80;1.27;;;;;;;;;;5027726;28;20029;-66
2022/07/06 04:01:00;;;;;;;1.60;1.02;;;;;;;;;;5034869;28;20029;-66
2022/07/06 04:03:26;;;;;;;2.13;1.15;;;;;;;;;;5033852;28;20037;-65
2022/07/06 04:05:53;;;;;;;1.73;1.10;;;;;;;;;;5034821;28;20036;-65
2022/07/06 04:08:19;;;;;;;2.95;1.10;;;;;;;;;;5033663;28;20029;-65
2022/07/06 04:10:45;;;;;;;3.65;1.20;;;;;;;;;;5031307;28;20048;-65
2022/07/06 04:13:11;;;;;;;2.70;1.23;;;;;;;;;;5034406;28;20026;-55
2022/07/06 04:15:37;;;;;;;2.10;1.20;;;;;;;;;;5034221;28;20035;-66
2022/07/06 04:18:03;;;;;;;1.45;1.25;;;;;;;;;;5034837;28;20104;-66
2022/07/06 04:20:29;;;;;;;3.05;1.20;;;;;;;;;;5033293;28;20047;-65
2022/07/06 04:22:55;;;;;;;2.70;1.33;;;;;;;;;;5034069;28;20112;-64
2022/07/06 04:25:21;;;;;;;1.55;1.00;;;;;;;;;;5033880;28;20022;-65
2022/07/06 04:27:47;;;;;;;4.95;1.88;;;;;;;;;;5032375;28;20022;-64
2022/07/06 04:30:13;;;;;;;4.75;1.38;;;;;;;;;;5033680;28;20033;-54
2022/07/06 04:32:39;;;;;;;2.20;1.65;;;;;;;;;;5034022;28;20071;-66
2022/07/06 04:35:06;;;;;;;2.30;1.10;;;;;;;;;;5034643;28;20438;-67
2022/07/06 04:37:32;;;;;;;2.80;1.10;;;;;;;;;;5033255;28;20111;-65
2022/07/06 04:39:58;;;;;;;1.10;1.00;;;;;;;;;;5033929;28;20083;-66
2022/07/06 04:42:25;;;;;;;3.50;1.40;;;;;;;;;;5033376;28;20030;-65
2022/07/06 04:44:54;;;;;;;2.97;1.30;;;;;;;;;;5033168;28;20025;-66
2022/07/06 04:47:20;;;;;;;2.20;1.25;;;;;;;;;;5029665;28;20025;-65
2022/07/06 04:49:46;;;;;;;2.50;1.27;;;;;;;;;;5034482;28;20017;-65
2022/07/06 04:52:12;;;;;;;3.00;1.30;;;;;;;;;;5033785;28;20463;-54
2022/07/06 04:54:38;;;;;;;1.70;1.27;;;;;;;;;;5033418;28;20033;-66
2022/07/06 04:57:04;;;;;;;1.90;0.90;;;;;;;;;;5031198;28;20021;-65
2022/07/06 04:59:30;;;;;;;5.15;1.88;;;;;;;;;;5033394;28;20033;-66
2022/07/06 05:01:56;;;;;;;2.67;1.30;;;;;;;;;;5029087;28;20029;-65
2022/07/06 05:04:24;;;;;;;2.97;1.58;;;;;;;;;;5033259;28;20048;-66
2022/07/06 05:06:50;;;;;;;3.22;1.25;;;;;;;;;;5033686;28;20037;-66
2022/07/06 05:09:16;;;;;;;4.78;1.65;;;;;;;;;;5033466;28;20429;-56
2022/07/06 05:11:42;;;;;;;2.75;1.20;;;;;;;;;;5034066;28;20061;-65
2022/07/06 05:14:08;;;;;;;1.95;1.10;;;;;;;;;;5033958;28;20057;-66
2022/07/06 05:16:34;;;;;;;3.75;1.15;;;;;;;;;;5031712;28;20189;-62
2022/07/06 05:19:00;;;;;;;4.43;1.35;;;;;;;;;;5033062;28;20075;-66
2022/07/06 05:21:26;;;;;;;2.75;1.00;;;;;;;;;;5031578;28;20113;-63
2022/07/06 05:23:52;;;;;;;4.22;1.77;;;;;;;;;;5031900;28;20476;-66
2022/07/06 05:26:18;;;;;;;2.13;1.42;;;;;;;;;;5031788;28;20033;-65
2022/07/06 05:28:44;;;;;;;1.63;1.20;;;;;;;;;;5033063;28;20548;-66
2022/07/06 05:31:10;;;;;;;2.65;1.38;;;;;;;;;;5033794;28;20043;-64
2022/07/06 05:33:36;;;;;;;2.50;1.92;;;;;;;;;;5030666;28;20014;-65
2022/07/06 05:36:02;;;;;;;2.95;1.40;;;;;;;;;;5033238;28;20018;-70
2022/07/06 05:38:28;;;;;;;4.00;1.30;;;;;;;;;;5031695;28;20049;-70
2022/07/06 05:40:54;;;;;;;4.82;1.65;;;;;;;;;;5029065;28;20111;-68
2022/07/06 05:43:20;;;;;;;3.20;1.40;;;;;;;;;;5029364;28;20061;-68
2022/07/06 05:45:46;;;;;;;2.75;1.33;;;;;;;;;;5036567;28;20056;-67
2022/07/06 05:50:57;;;;;;;1.70;1.30;;;;;;;;;;5019424;28;20064;-70
2022/07/06 05:53:23;;;;;;;2.47;1.02;;;;;;;;;;5029337;28;20447;-68
2022/07/06 05:56:14;;;;;;;3.55;1.23;;;;;;;;;;5025745;28;20050;-64
2022/07/06 06:50:50;;;;;;;4.28;1.70;;;;;;;;;;5012987;28;20057;-66
2022/07/06 06:53:16;;;;;;;2.63;1.77;;;;;;;;;;4987961;28;20225;-65
2022/07/06 06:55:42;;;;;;;2.05;1.10;;;;;;;;;;4992008;28;20027;-67
2022/07/06 06:58:08;;;;;;;3.28;1.42;;;;;;;;;;4987909;28;20025;-63
2022/07/06 07:00:34;;;;;;;2.42;1.33;;;;;;;;;;4986033;28;20035;-67
2022/07/06 07:03:00;;;;;;;3.05;1.38;;;;;;;;;;4996464;28;20033;-66
2022/07/06 07:05:26;;;;;;;3.80;1.50;;;;;;;;;;4988004;28;20023;-66
2022/07/06 07:07:54;;;;;;;1.90;1.27;;;;;;;;;;4983874;28;20038;-65
2022/07/06 07:10:21;;;;;;;2.72;1.38;;;;;;;;;;4993182;28;20034;-67
2022/07/06 07:12:47;;;;;;;2.53;1.83;;;;;;;;;;4992549;28;20027;-67
2022/07/06 07:15:13;;;;;;;3.00;1.30;;;;;;;;;;4979403;28;20039;-68
2022/07/06 07:17:39;;;;;;;4.38;1.83;;;;;;;;;;4988998;28;20050;-68
2022/07/06 07:20:06;;;;;;;3.70;1.45;;;;;;;;;;4991938;28;20435;-68
2022/07/06 07:22:32;;;;;;;1.80;1.15;;;;;;;;;;4995380;28;20018;-68
2022/07/06 07:25:01;;;;;;;2.25;1.42;;;;;;;;;;4993114;28;20034;-60
2022/07/06 07:27:27;;;;;;;4.80;1.52;;;;;;;;;;4991508;28;20405;-68
2022/07/06 07:29:53;;;;;;;4.72;1.55;;;;;;;;;;4990086;28;20031;-65
2022/07/06 07:32:19;;;;;;;3.38;1.40;;;;;;;;;;4986536;28;20039;-64
2022/07/06 07:34:46;;;;;;;3.55;1.30;;;;;;;;;;4998577;28;20066;-67
2022/07/06 07:37:12;;;;;;;4.38;1.48;;;;;;;;;;4990769;28;20038;-67
2022/07/06 07:39:38;;;;;;;3.33;1.27;;;;;;;;;;4987677;28;20516;-67
2022/07/06 07:42:04;;;;;;;2.80;1.45;;;;;;;;;;4991325;28;20030;-66
2022/07/06 07:44:30;;;;;;;4.20;2.08;;;;;;;;;;4993255;28;20026;-66
2022/07/06 07:46:56;;;;;;;3.80;1.50;;;;;;;;;;4999966;28;20483;-59
2022/07/06 07:49:22;;;;;;;2.42;1.20;;;;;;;;;;4991690;28;20058;-65
2022/07/06 07:51:49;;;;;;;5.10;1.40;;;;;;;;;;5007001;28;20467;-67
2022/07/06 07:54:15;;;;;;;2.60;1.50;;;;;;;;;;5022143;28;20037;-67
2022/07/06 07:56:41;;;;;;;4.63;1.27;;;;;;;;;;5019247;28;20044;-67
2022/07/06 07:59:07;;;;;;;2.72;1.33;;;;;;;;;;5010402;28;20025;-67
2022/07/06 08:01:33;;;;;;;4.63;1.23;;;;;;;;;;5017403;28;20061;-67
2022/07/06 08:04:00;;;;;;;6.22;1.70;;;;;;;;;;5015815;28;20033;-59
2022/07/06 08:06:26;;;;;;;3.28;1.38;;;;;;;;;;5009437;28;20037;-66
2022/07/06 08:08:52;;;;;;;4.90;1.20;;;;;;;;;;5021475;28;20030;-63
2022/07/06 08:11:18;;;;;;;5.38;1.50;;;;;;;;;;5025013;28;20183;-64
2022/07/06 08:13:44;;;;;;;2.28;1.30;;;;;;;;;;5015296;28;20462;-64
2022/07/06 08:16:10;;;;;;;4.07;1.92;;;;;;;;;;5018228;28;20053;-63
2022/07/06 08:18:36;;;;;;;4.03;1.50;;;;;;;;;;5016777;28;20022;-60
2022/07/06 08:21:02;;;;;;;3.40;1.52;;;;;;;;;;5016943;28;20037;-66
2022/07/06 08:23:28;;;;;;;4.78;2.20;;;;;;;;;;5001770;28;20022;-69
2022/07/06 08:25:54;;;;;;;4.93;1.63;;;;;;;;;;5017485;28;20037;-63
2022/07/06 08:28:20;;;;;;;4.10;1.42;;;;;;;;;;5012984;28;20029;-67
2022/07/06 08:30:47;;;;;;;6.30;1.58;;;;;;;;;;5019457;28;20385;-67
2022/07/06 08:33:14;;;;;;;3.20;1.25;;;;;;;;;;5025544;28;20481;-67
2022/07/06 08:35:40;;;;;;;4.95;1.90;;;;;;;;;;5005584;28;20045;-68
2022/07/06 08:38:06;;;;;;;3.75;1.40;;;;;;;;;;5009779;28;20027;-67
2022/07/06 08:40:36;;;;;;;5.32;1.52;;;;;;;;;;5004385;28;20038;-64
2022/07/06 08:43:02;;;;;;;2.65;1.50;;;;;;;;;;5013557;28;20030;-66
2022/07/06 08:45:28;;;;;;;2.13;1.30;;;;;;;;;;5021634;28;20099;-67
2022/07/06 08:47:55;;;;;;;7.35;1.33;;;;;;;;;;5012860;28;20398;-67
2022/07/06 08:50:21;;;;;;;3.33;1.33;;;;;;;;;;5016299;28;20025;-66
2022/07/06 08:52:51;;;;;;;2.97;1.48;;;;;;;;;;5009373;28;20070;-66
2022/07/06 08:55:17;;;;;;;1.98;1.38;;;;;;;;;;5003471;28;20026;-67
2022/07/06 08:57:46;;;;;;;3.75;1.40;;;;;;;;;;5010833;28;20112;-67
2022/07/06 09:00:12;;;;;;;2.25;1.42;;;;;;;;;;5005634;28;20066;-67
2022/07/06 09:02:40;;;;;;;2.05;1.40;;;;;;;;;;5012570;28;20101;-67
2022/07/06 09:05:07;;;;;;;3.25;1.42;;;;;;;;;;5009285;28;20084;-67
2022/07/06 09:07:33;;;;;;;2.92;1.40;;;;;;;;;;5011199;28;20037;-69
2022/07/06 09:09:59;;;;;;;4.63;1.30;;;;;;;;;;5011786;28;20073;-60
2022/07/06 09:12:27;;;;;;;3.28;1.63;;;;;;;;;;5009370;28;20493;-67
2022/07/06 09:14:56;;;;;;;3.60;1.88;;;;;;;;;;5011888;28;20033;-67
2022/07/06 09:17:25;;;;;;;1.90;1.38;;;;;;;;;;5012464;28;20058;-67
2022/07/06 09:19:51;;;;;;;6.55;1.70;;;;;;;;;;5011063;28;20038;-66
2022/07/06 09:22:31;;;;;;;8.20;1.60;;;;;;;;;;5009604;28;20105;-67
2022/07/06 09:25:06;;;;;;;4.13;1.42;;;;;;;;;;5003054;28;20462;-62
2022/07/06 09:27:37;;;;;;;3.85;1.30;;;;;;;;;;5012739;28;20029;-64
2022/07/06 09:30:03;;;;;;;2.45;1.40;;;;;;;;;;5006962;28;20494;-62
2022/07/06 09:32:29;;;;;;;1.90;1.23;;;;;;;;;;5015207;28;20117;-64
2022/07/06 09:34:55;;;;;;;3.80;1.30;;;;;;;;;;5015405;28;20025;-63
2022/07/06 09:37:23;;;;;;;3.45;1.00;;;;;;;;;;5011832;28;20400;-64
2022/07/06 09:39:49;;;;;;;1.02;0.85;;;;;;;;;;5014356;28;20038;-63
2022/07/06 09:42:15;;;;;;;3.67;1.15;;;;;;;;;;5007008;28;20156;-64
2022/07/06 09:44:42;;;;;;;3.92;1.08;;;;;;;;;;5011624;28;20036;-64
2022/07/06 09:47:12;;;;;;;2.95;1.38;;;;;;;;;;5010328;28;20022;-64
2022/07/06 09:49:38;;;;;;;1.63;1.10;;;;;;;;;;5013887;28;20066;-64
2022/07/06 09:52:09;;;;;;;4.72;1.10;;;;;;;;;;5009736;28;20453;-63
2022/07/06 09:54:36;;;;;;;2.33;1.15;;;;;;;;;;5013773;28;20084;-64
2022/07/06 09:57:02;;;;;;;4.82;1.15;;;;;;;;;;5011660;28;20040;-59
2022/07/06 09:59:31;;;;;;;2.72;1.30;;;;;;;;;;5012646;28;20026;-64
2022/07/06 10:01:58;;;;;;;2.47;1.65;;;;;;;;;;5011307;28;20489;-64
2022/07/06 10:04:25;;;;;;;2.70;1.20;;;;;;;;;;5014778;28;20026;-64
2022/07/06 10:06:52;;;;;;;2.00;1.27;;;;;;;;;;5014334;28;20022;-64
2022/07/06 10:09:19;;;;;;;1.52;1.05;;;;;;;;;;5011553;28;20030;-63
2022/07/06 10:11:48;;;;;;;3.00;1.02;;;;;;;;;;5012372;28;20030;-61
2022/07/06 10:14:17;;;;;;;1.73;1.55;;;;;;;;;;5016267;28;20025;-63
2022/07/06 10:16:43;;;;;;;2.83;1.00;;;;;;;;;;5011832;28;20029;-64
2022/07/06 10:19:09;;;;;;;2.60;0.90;;;;;;;;;;5010790;28;20038;-63
2022/07/06 10:21:39;;;;;;;1.50;0.95;;;;;;;;;;5012665;28;20482;-64
2022/07/06 10:24:06;;;;;;;2.38;1.02;;;;;;;;;;5011152;28;20101;-64
2022/07/06 10:26:33;;;;;;;1.67;1.17;;;;;;;;;;5015744;28;20030;-64
2022/07/06 10:29:03;;;;;;;1.23;0.90;;;;;;;;;;5009193;28;20040;-59
2022/07/06 10:31:29;;;;;;;5.68;1.42;;;;;;;;;;5011678;28;20247;-64
2022/07/06 10:33:56;;;;;;;1.88;1.20;;;;;;;;;;5014067;28;20021;-60
2022/07/06 10:36:23;;;;;;;1.90;0.90;;;;;;;;;;5008251;28;20030;-64
2022/07/06 10:38:50;;;;;;;2.13;1.10;;;;;;;;;;5012944;28;20057;-64
2022/07/06 10:41:17;;;;;;;1.65;1.42;;;;;;;;;;5010200;28;20088;-64
2022/07/06 10:43:44;;;;;;;1.25;0.95;;;;;;;;;;5011839;28;20034;-64
2022/07/06 10:46:12;;;;;;;1.52;1.05;;;;;;;;;;5010032;28;20033;-64
2022/07/06 10:48:41;;;;;;;1.80;1.30;;;;;;;;;;5010399;28;20080;-64
2022/07/06 10:51:08;;;;;;;1.40;0.93;;;;;;;;;;5006575;28;20498;-64
2022/07/06 10:53:35;;;;;;;1.38;1.00;;;;;;;;;;5003626;28;20072;-65
2022/07/06 10:56:03;;;;;;;1.35;0.80;;;;;;;;;;5012101;28;20049;-60
2022/07/06 10:58:36;;;;;;;2.55;1.05;;;;;;;;;;5009960;28;20518;-59
2022/07/06 11:01:02;;;;;;;2.10;0.98;;;;;;;;;;5001097;28;20212;-60
2022/07/06 11:03:32;;;;;;;1.20;1.00;;;;;;;;;;5008335;28;20038;-64
2022/07/06 11:05:59;;;;;;;1.88;1.20;;;;;;;;;;5003795;28;20032;-60
2022/07/06 11:08:41;;;;;;;1.17;0.90;;;;;;;;;;5001452;28;20046;-64
2022/07/06 11:11:16;;;;;;;2.15;0.80;;;;;;;;;;5011217;28;20037;-63
2022/07/06 11:13:43;;;;;;;2.15;1.02;;;;;;;;;;5016394;28;20419;-64
2022/07/06 11:16:09;;;;;;;3.05;1.02;;;;;;;;;;5004924;28;20282;-63
2022/07/06 11:18:42;;;;;;;1.58;0.80;;;;;;;;;;5009169;28;20029;-63
2022/07/06 11:21:15;;;;;;;1.48;0.85;;;;;;;;;;5011744;28;20549;-63
2022/07/06 11:23:41;;;;;;;2.50;0.95;;;;;;;;;;5015408;28;20091;-64
2022/07/06 11:26:08;;;;;;;1.73;0.90;;;;;;;;;;5015113;28;20030;-64
2022/07/06 11:28:34;;;;;;;1.45;0.95;;;;;;;;;;5010686;28;20149;-64
2022/07/06 11:31:00;;;;;;;1.45;0.80;;;;;;;;;;5011477;28;20037;-58
2022/07/06 11:33:29;;;;;;;1.95;0.90;;;;;;;;;;5015010;28;20030;-65
2022/07/06 11:36:14;;;;;;;1.60;0.73;;;;;;;;;;5000587;28;20474;-65
2022/07/06 11:38:40;;;;;;;1.30;0.80;;;;;;;;;;5010832;28;20028;-64
2022/07/06 11:41:06;;;;;;;3.63;0.73;;;;;;;;;;5011383;28;20034;-64
2022/07/06 11:43:32;;;;;;;3.20;0.77;;;;;;;;;;5011277;28;20072;-65
2022/07/06 11:45:59;;;;;;;2.33;0.75;;;;;;;;;;5013058;28;20065;-63
2022/07/06 11:48:25;;;;;;;1.15;0.98;;;;;;;;;;5015147;28;20538;-65
2022/07/06 11:50:58;;;;;;;1.42;0.93;;;;;;;;;;5010718;28;20128;-64
2022/07/06 11:53:24;;;;;;;3.15;1.17;;;;;;;;;;4999683;28;20417;-64
2022/07/06 11:55:50;;;;;;;1.63;1.00;;;;;;;;;;5006605;28;20026;-65
2022/07/06 11:58:17;;;;;;;1.40;0.85;;;;;;;;;;5007670;28;20034;-65
2022/07/06 12:00:43;;;;;;;1.25;0.95;;;;;;;;;;5014296;28;20053;-64
2022/07/06 12:03:09;;;;;;;2.13;1.30;;;;;;;;;;5013739;28;20127;-64
2022/07/06 12:05:35;;;;;;;1.10;0.80;;;;;;;;;;5013276;28;20065;-64
2022/07/06 12:08:08;;;;;;;1.60;1.33;;;;;;;;;;5013972;28;20579;-58
2022/07/06 12:10:35;;;;;;;2.30;1.00;;;;;;;;;;5016524;28;20034;-64
2022/07/06 12:13:05;;;;;;;3.65;1.35;;;;;;;;;;5015826;28;20022;-60
2022/07/06 12:15:31;;;;;;;2.33;0.93;;;;;;;;;;5013478;28;20034;-64
2022/07/06 12:17:57;;;;;;;2.00;0.88;;;;;;;;;;5013276;28;20029;-64
2022/07/06 12:20:24;;;;;;;1.23;0.90;;;;;;;;;;5014844;28;20037;-64
2022/07/06 12:22:50;;;;;;;1.73;1.15;;;;;;;;;;5017254;28;20029;-63
2022/07/06 12:25:32;;;;;;;1.88;0.98;;;;;;;;;;5013221;28;20030;-64
2022/07/06 12:27:58;;;;;;;2.58;1.15;;;;;;;;;;5010742;28;20054;-64
2022/07/06 12:30:24;;;;;;;2.35;0.70;;;;;;;;;;5008081;28;20516;-64
2022/07/06 12:33:09;;;;;;;2.08;0.90;;;;;;;;;;5009900;28;20105;-64
2022/07/06 12:35:35;;;;;;;1.80;1.00;;;;;;;;;;5016035;28;20040;-64
2022/07/06 12:38:01;;;;;;;1.80;1.08;;;;;;;;;;5013661;28;20041;-59
2022/07/06 12:40:27;;;;;;;2.20;0.82;;;;;;;;;;5013229;28;20049;-64
2022/07/06 12:42:53;;;;;;;4.60;1.40;;;;;;;;;;5012326;28;20030;-64
2022/07/06 12:45:20;;;;;;;2.05;0.90;;;;;;;;;;5012790;28;20033;-63
2022/07/06 12:48:02;;;;;;;2.33;1.08;;;;;;;;;;5013762;28;20029;-61
2022/07/06 12:50:33;;;;;;;3.00;1.20;;;;;;;;;;5014375;28;20038;-64
2022/07/06 12:52:59;;;;;;;1.10;0.80;;;;;;;;;;5012138;28;20494;-64
2022/07/06 12:55:27;;;;;;;1.67;0.90;;;;;;;;;;5016157;28;20045;-63
2022/07/06 12:57:54;;;;;;;1.65;0.70;;;;;;;;;;5014704;28;20021;-63
2022/07/06 13:00:21;;;;;;;2.35;0.80;;;;;;;;;;5017839;28;20463;-62
2022/07/06 13:02:48;;;;;;;1.58;1.13;;;;;;;;;;5010786;28;20061;-63
2022/07/06 13:05:16;;;;;;;1.73;0.90;;;;;;;;;;5005830;28;20022;-62
2022/07/06 13:07:46;;;;;;;2.95;0.95;;;;;;;;;;5003170;28;20041;-63
2022/07/06 13:10:13;;;;;;;1.38;0.85;;;;;;;;;;4991457;28;20029;-64
2022/07/06 13:12:40;;;;;;;1.88;0.90;;;;;;;;;;5015473;28;20053;-64
2022/07/06 13:15:07;;;;;;;1.10;0.70;;;;;;;;;;5012254;28;20022;-58
2022/07/06 13:17:33;;;;;;;2.78;1.38;;;;;;;;;;5000610;28;21476;-63
2022/07/06 13:19:59;;;;;;;3.33;0.90;;;;;;;;;;5000147;28;20052;-68
2022/07/06 13:22:25;;;;;;;2.45;0.85;;;;;;;;;;5004921;28;20042;-69
2022/07/06 13:24:51;;;;;;;4.90;1.08;;;;;;;;;;5009844;28;20033;-64
2022/07/06 13:27:18;;;;;;;0.80;0.70;;;;;;;;;;5013739;28;20080;-65
2022/07/06 13:29:44;;;;;;;2.70;1.00;;;;;;;;;;5016600;28;20021;-64
2022/07/06 13:32:10;;;;;;;1.83;1.02;;;;;;;;;;5010301;28;20030;-67
2022/07/06 13:34:36;;;;;;;1.88;1.02;;;;;;;;;;5010409;28;20080;-63
2022/07/06 13:37:03;;;;;;;1.50;0.95;;;;;;;;;;5009125;28;20038;-60
2022/07/06 13:39:29;;;;;;;2.28;0.95;;;;;;;;;;5008155;28;20030;-62
2022/07/06 13:41:55;;;;;;;2.60;1.60;;;;;;;;;;5010083;28;20050;-63
2022/07/06 13:44:22;;;;;;;1.40;0.90;;;;;;;;;;5010501;28;20105;-66
2022/07/06 13:46:48;;;;;;;2.25;0.90;;;;;;;;;;5011438;28;20041;-68
2022/07/06 13:49:14;;;;;;;1.05;0.90;;;;;;;;;;5009086;28;20022;-69
2022/07/06 13:51:40;;;;;;;1.33;0.90;;;;;;;;;;5010910;28;20056;-65
2022/07/06 13:54:06;;;;;;;1.98;0.80;;;;;;;;;;5011022;28;20050;-58
2022/07/06 13:56:33;;;;;;;1.75;0.80;;;;;;;;;;5011831;28;20042;-70
2022/07/06 13:58:59;;;;;;;2.75;1.00;;;;;;;;;;4992593;28;20207;-62
2022/07/06 14:01:25;;;;;;;1.73;0.80;;;;;;;;;;5009522;28;20504;-64
2022/07/06 14:03:51;;;;;;;3.88;1.45;;;;;;;;;;5010249;28;20471;-64
2022/07/06 14:06:17;;;;;;;1.33;1.00;;;;;;;;;;5011739;28;20037;-64
2022/07/06 14:08:43;;;;;;;1.92;1.40;;;;;;;;;;5011408;28;20021;-62
2022/07/06 14:11:09;;;;;;;1.67;0.90;;;;;;;;;;5010649;28;20034;-63
2022/07/06 14:13:36;;;;;;;7.43;1.08;;;;;;;;;;5012162;28;20128;-64
2022/07/06 14:16:02;;;;;;;2.00;1.20;;;;;;;;;;5012114;28;20022;-64
2022/07/06 14:18:28;;;;;;;5.70;1.35;;;;;;;;;;5010806;28;20033;-56
2022/07/06 14:20:54;;;;;;;6.35;1.20;;;;;;;;;;4999175;28;20050;-65
2022/07/06 14:23:21;;;;;;;10.85;1.30;;;;;;;;;;5010703;28;20034;-67
2022/07/06 14:25:47;;;;;;;1.67;1.30;;;;;;;;;;5016839;28;20030;-63
2022/07/06 14:28:13;;;;;;;2.22;1.20;;;;;;;;;;5001702;28;20505;-66
2022/07/06 14:30:40;;;;;;;4.85;1.35;;;;;;;;;;5016686;28;20025;-74
2022/07/06 14:33:07;;;;;;;1.85;1.30;;;;;;;;;;5016008;28;20065;-59
2022/07/06 14:35:37;;;;;;;2.85;1.40;;;;;;;;;;5013430;28;20363;-62
2022/07/06 14:38:04;;;;;;;4.07;1.25;;;;;;;;;;5010345;28;20073;-58
2022/07/06 14:40:31;;;;;;;4.72;1.25;;;;;;;;;;5019052;28;20040;-65
2022/07/06 14:42:57;;;;;;;6.63;1.38;;;;;;;;;;4985847;28;20046;-69
2022/07/06 14:45:23;;;;;;;6.25;1.50;;;;;;;;;;5006357;28;20029;-61
2022/07/06 14:47:49;;;;;;;3.90;0.90;;;;;;;;;;5002056;28;20500;-62
2022/07/06 14:50:16;;;;;;;4.95;1.50;;;;;;;;;;5009073;28;20026;-72
2022/07/06 14:52:42;;;;;;;1.50;0.90;;;;;;;;;;5010364;28;20376;-70
2022/07/06 14:55:08;;;;;;;7.55;2.03;;;;;;;;;;5010949;28;20057;-63
2022/07/06 14:57:34;;;;;;;3.83;0.98;;;;;;;;;;5001246;28;20368;-68
2022/07/06 15:00:00;;;;;;;3.85;1.20;;;;;;;;;;5004691;28;20653;-69
2022/07/06 15:02:26;;;;;;;2.55;1.08;;;;;;;;;;5008970;28;20045;-71
2022/07/06 15:04:52;;;;;;;2.63;1.40;;;;;;;;;;5007398;28;20093;-68
2022/07/06 15:07:18;;;;;;;3.10;1.08;;;;;;;;;;5007557;28;20041;-73
2022/07/06 15:09:44;;;;;;;1.52;0.98;;;;;;;;;;5013628;28;20032;-71
2022/07/06 15:12:10;;;;;;;1.92;1.10;;;;;;;;;;5015306;28;20041;-74
2022/07/06 15:14:36;;;;;;;3.90;0.95;;;;;;;;;;5015688;28;20026;-68
2022/07/06 15:17:02;;;;;;;3.72;1.00;;;;;;;;;;5007833;28;20506;-67
2022/07/06 15:19:28;;;;;;;1.40;0.90;;;;;;;;;;5016918;28;20065;-68
2022/07/06 15:21:54;;;;;;;2.65;1.63;;;;;;;;;;5007872;28;20196;-68
2022/07/06 15:24:20;;;;;;;5.07;1.17;;;;;;;;;;5011372;28;20535;-69
2022/07/06 15:26:47;;;;;;;3.80;1.10;;;;;;;;;;5011246;28;20045;-65
2022/07/06 15:29:13;;;;;;;3.28;1.30;;;;;;;;;;5013985;28;20101;-61
2022/07/06 15:31:39;;;;;;;1.92;0.90;;;;;;;;;;5002699;28;20026;-62
2022/07/06 15:34:05;;;;;;;2.53;1.00;;;;;;;;;;5016978;28;20498;-59
2022/07/06 15:36:31;;;;;;;2.67;1.10;;;;;;;;;;5011258;28;20041;-61
2022/07/06 15:38:57;;;;;;;2.53;1.40;;;;;;;;;;5013723;28;20022;-62